createdAt,value
2017-12-10T00:01:50.446Z,18.40
2017-12-10T00:04:19.491Z,18.30
2017-12-10T00:06:47.872Z,18.30
2017-12-10T00:09:17.092Z,18.40
2017-12-10T00:11:48.393Z,18.40
2017-12-10T00:14:17.129Z,18.40
2017-12-10T00:16:47.691Z,18.40
2017-12-10T00:19:15.894Z,18.40
2017-12-10T00:21:44.826Z,18.40
2017-12-10T00:24:14.785Z,18.40
2017-12-10T00:26:44.373Z,18.30
2017-12-10T00:29:14.335Z,18.30
2017-12-10T00:31:42.774Z,18.30
2017-12-10T00:34:11.901Z,18.30
2017-12-10T00:36:40.196Z,18.30
2017-12-10T00:39:09.214Z,18.30
2017-12-10T00:41:37.576Z,18.30
2017-12-10T00:44:06.246Z,18.30
2017-12-10T00:46:35.816Z,18.30
2017-12-10T00:49:04.698Z,18.30
2017-12-10T00:51:33.709Z,18.30
2017-12-10T00:54:02.556Z,18.30
2017-12-10T00:56:30.887Z,18.30
2017-12-10T00:58:59.750Z,18.30
2017-12-10T01:01:29.047Z,18.30
2017-12-10T01:03:57.358Z,18.30
2017-12-10T01:06:30.902Z,18.30
2017-12-10T01:09:00.022Z,18.30
2017-12-10T01:11:28.225Z,18.30
2017-12-10T01:13:56.465Z,18.30
2017-12-10T01:16:24.792Z,18.30
2017-12-10T01:18:53.102Z,18.30
2017-12-10T01:21:21.343Z,18.30
2017-12-10T01:23:49.540Z,18.30
2017-12-10T01:26:18.538Z,18.30
2017-12-10T01:28:46.806Z,18.30
2017-12-10T01:31:15.808Z,18.30
2017-12-10T01:33:44.793Z,18.30
2017-12-10T01:36:13.750Z,18.30
2017-12-10T01:38:41.950Z,18.30
2017-12-10T01:41:11.058Z,18.30
2017-12-10T01:43:39.383Z,18.20
2017-12-10T01:46:07.578Z,18.20
2017-12-10T01:48:35.842Z,18.30
2017-12-10T01:51:04.034Z,18.30
2017-12-10T01:53:32.343Z,18.30
2017-12-10T01:56:00.554Z,18.20
2017-12-10T01:58:28.749Z,18.20
2017-12-10T02:00:56.971Z,18.20
2017-12-10T02:03:25.226Z,18.20
2017-12-10T02:05:54.274Z,18.10
2017-12-10T02:08:22.507Z,18.10
2017-12-10T02:10:51.009Z,18.10
2017-12-10T02:13:19.287Z,18.20
2017-12-10T02:15:47.565Z,18.20
2017-12-10T02:18:15.763Z,18.10
2017-12-10T02:20:43.993Z,18.10
2017-12-10T02:23:12.199Z,18.10
2017-12-10T02:25:40.397Z,18.10
2017-12-10T02:28:08.621Z,18.10
2017-12-10T02:30:36.859Z,18.10
2017-12-10T02:33:05.160Z,18.10
2017-12-10T02:35:33.411Z,18.10
2017-12-10T02:38:02.374Z,18.10
2017-12-10T02:40:30.685Z,18.10
2017-12-10T02:42:59.674Z,18.10
2017-12-10T02:45:28.811Z,18.10
2017-12-10T02:47:57.037Z,18.10
2017-12-10T02:50:26.010Z,18.10
2017-12-10T02:52:54.287Z,18.10
2017-12-10T02:55:23.320Z,18.10
2017-12-10T02:57:51.660Z,18.10
2017-12-10T03:00:20.047Z,18.10
2017-12-10T03:02:49.053Z,18.10
2017-12-10T03:05:18.019Z,18.10
2017-12-10T03:07:46.254Z,18.10
2017-12-10T03:10:14.502Z,18.10
2017-12-10T03:12:42.829Z,18.10
2017-12-10T03:15:11.298Z,18.10
2017-12-10T03:17:40.321Z,18.10
2017-12-10T03:20:09.301Z,18.10
2017-12-10T03:22:37.614Z,18.10
2017-12-10T03:25:06.086Z,18.10
2017-12-10T03:27:34.415Z,18.10
2017-12-10T03:30:02.634Z,18.10
2017-12-10T03:32:31.658Z,18.10
2017-12-10T03:34:59.867Z,18.10
2017-12-10T03:37:32.329Z,18.10
2017-12-10T03:40:00.706Z,18.10
2017-12-10T03:42:28.967Z,18.10
2017-12-10T03:44:57.210Z,18.00
2017-12-10T03:47:25.463Z,18.00
2017-12-10T03:49:54.474Z,18.00
2017-12-10T03:52:22.891Z,18.00
2017-12-10T03:54:51.164Z,18.00
2017-12-10T03:57:19.487Z,18.00
2017-12-10T03:59:47.779Z,18.00
2017-12-10T04:02:16.741Z,18.00
2017-12-10T04:04:45.399Z,18.00
2017-12-10T04:07:15.408Z,18.10
2017-12-10T04:09:43.647Z,18.10
2017-12-10T04:12:11.867Z,18.10
2017-12-10T04:14:40.124Z,18.10
2017-12-10T04:17:08.400Z,18.10
2017-12-10T04:19:36.646Z,18.10
2017-12-10T04:22:04.898Z,18.00
2017-12-10T04:24:33.207Z,18.10
2017-12-10T04:27:01.496Z,18.10
2017-12-10T04:29:29.764Z,18.10
2017-12-10T04:31:58.023Z,18.00
2017-12-10T04:34:27.008Z,18.00
2017-12-10T04:36:56.033Z,18.10
2017-12-10T04:39:24.355Z,18.00
2017-12-10T04:41:52.572Z,18.00
2017-12-10T04:44:20.811Z,18.10
2017-12-10T04:46:49.042Z,18.00
2017-12-10T04:49:17.266Z,18.00
2017-12-10T04:51:46.260Z,18.00
2017-12-10T04:54:16.375Z,18.00
2017-12-10T04:56:45.456Z,18.00
2017-12-10T04:59:13.675Z,18.00
2017-12-10T05:01:41.887Z,18.00
2017-12-10T05:04:10.187Z,18.00
2017-12-10T05:06:38.558Z,18.00
2017-12-10T05:09:06.802Z,18.00
2017-12-10T05:11:35.078Z,18.00
2017-12-10T05:14:03.363Z,18.00
2017-12-10T05:16:31.681Z,18.00
2017-12-10T05:19:00.651Z,18.00
2017-12-10T05:21:28.941Z,18.00
2017-12-10T05:23:57.910Z,18.00
2017-12-10T05:26:26.177Z,18.00
2017-12-10T05:28:54.350Z,18.00
2017-12-10T05:31:22.576Z,18.00
2017-12-10T05:33:50.793Z,18.00
2017-12-10T05:36:19.011Z,18.00
2017-12-10T05:38:48.004Z,18.00
2017-12-10T05:41:16.971Z,18.10
2017-12-10T05:43:45.681Z,18.10
2017-12-10T05:46:14.703Z,18.10
2017-12-10T05:48:42.939Z,18.10
2017-12-10T05:51:11.166Z,18.10
2017-12-10T05:53:39.478Z,18.10
2017-12-10T05:56:07.698Z,18.10
2017-12-10T05:58:36.011Z,18.10
2017-12-10T06:01:04.304Z,18.10
2017-12-10T06:03:32.614Z,18.10
2017-12-10T06:06:01.003Z,18.20
2017-12-10T06:08:29.225Z,18.20
2017-12-10T06:10:57.429Z,18.30
2017-12-10T06:13:26.466Z,18.40
2017-12-10T06:15:54.928Z,18.40
2017-12-10T06:18:24.218Z,18.50
2017-12-10T06:20:52.459Z,18.50
2017-12-10T06:23:20.734Z,18.60
2017-12-10T06:25:48.966Z,18.60
2017-12-10T06:28:17.240Z,18.60
2017-12-10T06:30:45.523Z,18.70
2017-12-10T06:33:13.741Z,18.70
2017-12-10T06:35:42.747Z,18.70
2017-12-10T06:38:11.801Z,18.70
2017-12-10T06:40:41.958Z,18.70
2017-12-10T06:43:10.306Z,18.70
2017-12-10T06:45:39.408Z,18.70
2017-12-10T06:48:09.481Z,18.70
2017-12-10T06:50:37.769Z,18.70
2017-12-10T06:53:05.983Z,18.70
2017-12-10T06:55:35.004Z,18.70
2017-12-10T06:58:03.398Z,18.70
2017-12-10T07:00:31.787Z,18.70
2017-12-10T07:03:00.172Z,18.70
2017-12-10T07:05:29.460Z,18.70
2017-12-10T07:07:57.702Z,18.70
2017-12-10T07:10:25.994Z,18.70
2017-12-10T07:12:54.232Z,18.70
2017-12-10T07:15:23.198Z,18.70
2017-12-10T07:17:51.457Z,18.70
2017-12-10T07:20:19.762Z,18.70
2017-12-10T07:22:47.983Z,18.70
2017-12-10T07:25:16.182Z,18.70
2017-12-10T07:27:44.515Z,18.70
2017-12-10T07:30:14.406Z,18.70
2017-12-10T07:32:42.639Z,18.70
2017-12-10T07:35:11.015Z,18.70
2017-12-10T07:37:39.308Z,18.80
2017-12-10T07:40:07.635Z,18.80
2017-12-10T07:42:38.980Z,18.80
2017-12-10T07:45:07.388Z,18.80
2017-12-10T07:47:36.227Z,18.80
2017-12-10T07:50:06.213Z,18.80
2017-12-10T07:52:34.768Z,18.80
2017-12-10T07:55:03.112Z,18.70
2017-12-10T07:57:33.301Z,18.80
2017-12-10T08:00:02.558Z,18.70
2017-12-10T08:02:30.827Z,18.70
2017-12-10T08:05:02.259Z,18.70
2017-12-10T08:07:30.530Z,18.80
2017-12-10T08:10:00.323Z,18.80
2017-12-10T08:12:29.821Z,18.70
2017-12-10T08:14:58.058Z,18.70
2017-12-10T08:17:26.771Z,18.70
2017-12-10T08:19:55.080Z,18.70
2017-12-10T08:22:24.091Z,18.70
2017-12-10T08:24:52.366Z,18.70
2017-12-10T08:27:21.546Z,18.80
2017-12-10T08:29:50.544Z,18.80
2017-12-10T08:32:19.634Z,18.80
2017-12-10T08:34:48.688Z,18.80
2017-12-10T08:37:17.883Z,18.80
2017-12-10T08:39:46.150Z,18.80
2017-12-10T08:42:14.386Z,18.80
2017-12-10T08:44:42.593Z,18.80
2017-12-10T08:47:10.879Z,18.80
2017-12-10T08:49:39.165Z,18.80
2017-12-10T08:52:07.490Z,18.80
2017-12-10T08:54:35.784Z,18.80
2017-12-10T08:57:04.028Z,18.80
2017-12-10T08:59:33.029Z,18.80
2017-12-10T09:02:01.418Z,18.80
2017-12-10T09:04:30.058Z,18.80
2017-12-10T09:06:58.462Z,18.80
2017-12-10T09:09:26.663Z,18.90
2017-12-10T09:11:54.933Z,18.90
2017-12-10T09:14:23.190Z,18.90
2017-12-10T09:16:51.447Z,18.90
2017-12-10T09:19:20.513Z,18.90
2017-12-10T09:21:48.712Z,18.90
2017-12-10T09:24:17.702Z,18.90
2017-12-10T09:26:45.913Z,18.90
2017-12-10T09:29:15.014Z,18.90
2017-12-10T09:31:43.223Z,18.90
2017-12-10T09:34:11.512Z,18.80
2017-12-10T09:36:39.765Z,18.80
2017-12-10T09:39:08.103Z,18.80
2017-12-10T09:41:36.401Z,18.80
2017-12-10T09:44:04.638Z,18.80
2017-12-10T09:46:37.886Z,18.80
2017-12-10T09:49:06.092Z,18.80
2017-12-10T09:51:35.102Z,18.80
2017-12-10T09:54:03.318Z,18.80
2017-12-10T09:56:31.631Z,18.80
2017-12-10T09:59:00.595Z,18.80
2017-12-10T10:01:28.940Z,18.80
2017-12-10T10:03:57.265Z,18.80
2017-12-10T10:06:25.483Z,18.80
2017-12-10T10:08:53.714Z,18.80
2017-12-10T10:11:21.966Z,18.80
2017-12-10T10:13:50.263Z,18.80
2017-12-10T10:16:19.053Z,18.80
2017-12-10T10:18:47.241Z,18.80
2017-12-10T10:21:16.223Z,18.80
2017-12-10T10:23:45.197Z,18.90
2017-12-10T10:26:13.391Z,18.80
2017-12-10T10:28:42.356Z,18.90
2017-12-10T10:31:10.684Z,18.90
2017-12-10T10:33:39.073Z,18.90
2017-12-10T10:36:07.313Z,18.90
2017-12-10T10:38:35.595Z,18.90
2017-12-10T10:41:04.563Z,18.90
2017-12-10T10:43:32.826Z,18.90
2017-12-10T10:48:38.343Z,18.90
2017-12-10T10:51:07.033Z,19.00
2017-12-10T10:56:15.003Z,19.00
2017-12-10T11:01:33.974Z,19.00
2017-12-10T11:04:03.056Z,19.00
2017-12-10T11:06:31.536Z,19.00
2017-12-10T11:08:59.769Z,19.00
2017-12-10T11:11:28.921Z,19.00
2017-12-10T11:13:58.319Z,19.10
2017-12-10T11:16:26.589Z,19.10
2017-12-10T11:18:54.803Z,19.10
2017-12-10T11:21:23.934Z,19.10
2017-12-10T11:23:53.985Z,19.10
2017-12-10T11:26:23.266Z,19.10
2017-12-10T11:28:51.881Z,19.10
2017-12-10T11:31:26.284Z,19.10
2017-12-10T11:33:54.677Z,19.10
2017-12-10T11:36:24.033Z,19.10
2017-12-10T11:38:52.541Z,19.10
2017-12-10T11:41:25.626Z,19.10
2017-12-10T11:43:57.716Z,19.10
2017-12-10T11:46:27.634Z,19.00
2017-12-10T11:49:07.290Z,19.10
2017-12-10T11:51:36.080Z,19.10
2017-12-10T11:54:04.558Z,19.20
2017-12-10T11:56:32.835Z,19.20
2017-12-10T11:59:09.586Z,19.20
2017-12-10T12:01:43.489Z,19.20
2017-12-10T12:04:18.006Z,19.30
2017-12-10T12:06:46.521Z,19.30
2017-12-10T12:09:16.453Z,19.30
2017-12-10T12:11:56.804Z,19.40
2017-12-10T12:14:27.271Z,19.40
2017-12-10T12:17:04.431Z,19.40
2017-12-10T12:19:42.146Z,19.40
2017-12-10T12:22:16.306Z,19.40
2017-12-10T12:24:47.946Z,19.40
2017-12-10T12:27:22.586Z,19.40
2017-12-10T12:29:51.050Z,19.30
2017-12-10T12:42:10.550Z,19.20
2017-12-10T12:44:52.817Z,19.10
2017-12-10T12:47:40.583Z,19.10
2017-12-10T12:50:40.872Z,19.00
2017-12-10T12:53:12.429Z,19.10
2017-12-10T12:55:44.756Z,19.00
2017-12-10T12:58:15.092Z,19.10
2017-12-10T13:00:50.717Z,19.10
2017-12-10T13:03:28.610Z,19.10
2017-12-10T13:05:56.874Z,19.10
2017-12-10T13:08:26.412Z,19.00
2017-12-10T13:11:01.186Z,18.90
2017-12-10T13:13:29.734Z,18.90
2017-12-10T13:15:58.310Z,18.90
2017-12-10T13:18:34.513Z,18.80
2017-12-10T13:21:06.184Z,18.80
2017-12-10T13:23:37.810Z,18.80
2017-12-10T13:26:07.065Z,18.80
2017-12-10T13:28:35.525Z,18.80
2017-12-10T13:31:09.597Z,18.80
2017-12-10T13:33:38.995Z,18.80
2017-12-10T13:36:07.472Z,18.80
2017-12-10T13:38:36.780Z,18.80
2017-12-10T13:41:07.416Z,18.80
2017-12-10T13:43:38.732Z,18.80
2017-12-10T13:46:07.084Z,18.70
2017-12-10T13:48:44.718Z,18.80
2017-12-10T13:51:21.150Z,18.70
2017-12-10T13:53:49.598Z,18.70
2017-12-10T13:56:17.988Z,18.70
2017-12-10T13:58:50.077Z,18.70
2017-12-10T14:01:45.977Z,18.70
2017-12-10T14:04:15.234Z,18.60
2017-12-10T14:06:43.588Z,18.60
2017-12-10T14:09:15.266Z,18.50
2017-12-10T14:11:45.410Z,18.50
2017-12-10T14:14:19.832Z,18.50
2017-12-10T14:16:48.214Z,18.50
2017-12-10T14:19:17.818Z,18.50
2017-12-10T14:21:46.171Z,18.50
2017-12-10T14:24:14.607Z,18.50
2017-12-10T14:29:29.261Z,18.40
2017-12-10T14:31:58.380Z,18.40
2017-12-10T14:34:28.066Z,18.40
2017-12-10T14:36:56.406Z,18.40
2017-12-10T14:39:24.761Z,18.50
2017-12-10T14:41:53.124Z,18.50
2017-12-10T14:44:22.154Z,18.60
2017-12-10T14:46:50.512Z,18.60
2017-12-10T14:49:22.457Z,18.70
2017-12-10T14:51:51.577Z,18.70
2017-12-10T14:54:19.948Z,18.70
2017-12-10T14:56:48.959Z,18.80
2017-12-10T15:01:56.711Z,18.80
2017-12-10T15:04:25.135Z,18.80
2017-12-10T15:07:19.196Z,18.80
2017-12-10T15:09:49.633Z,18.80
2017-12-10T15:12:24.489Z,18.80
2017-12-10T15:14:53.034Z,18.80
2017-12-10T15:17:23.682Z,18.80
2017-12-10T15:19:52.349Z,18.80
2017-12-10T15:22:28.033Z,18.80
2017-12-10T15:25:00.342Z,18.80
2017-12-10T15:27:31.243Z,18.80
2017-12-10T15:30:00.768Z,18.80
2017-12-10T15:32:29.211Z,18.90
2017-12-10T15:34:58.393Z,18.80
2017-12-10T15:37:28.838Z,18.90
2017-12-10T15:40:00.374Z,18.80
2017-12-10T15:42:29.947Z,18.80
2017-12-10T15:44:58.390Z,18.80
2017-12-10T15:57:17.198Z,18.80
2017-12-10T15:59:54.707Z,18.80
2017-12-10T16:02:32.964Z,18.80
2017-12-10T16:05:04.332Z,18.80
2017-12-10T16:07:32.862Z,18.80
2017-12-10T16:10:05.704Z,18.90
2017-12-10T16:12:35.642Z,18.90
2017-12-10T16:15:07.109Z,18.90
2017-12-10T16:17:50.367Z,18.90
2017-12-10T16:20:19.626Z,18.90
2017-12-10T16:22:50.394Z,18.90
2017-12-10T16:25:44.058Z,18.90
2017-12-10T16:28:13.929Z,18.90
2017-12-10T16:30:45.647Z,18.90
2017-12-10T16:36:34.472Z,18.90
2017-12-10T16:39:18.193Z,18.90
2017-12-10T16:41:48.421Z,18.90
2017-12-10T16:44:20.186Z,19.00
2017-12-10T16:46:48.608Z,19.00
2017-12-10T16:49:25.243Z,19.00
2017-12-10T16:52:01.814Z,19.00
2017-12-10T16:54:44.965Z,19.00
2017-12-10T16:57:14.431Z,19.00
2017-12-10T16:59:42.748Z,19.00
2017-12-10T17:02:12.753Z,19.10
2017-12-10T17:04:41.924Z,19.10
2017-12-10T17:07:15.844Z,19.10
2017-12-10T17:09:46.580Z,19.10
2017-12-10T17:12:16.313Z,19.10
2017-12-10T17:14:45.334Z,19.10
2017-12-10T17:17:14.169Z,19.10
2017-12-10T17:19:43.166Z,19.10
2017-12-10T17:22:11.811Z,19.10
2017-12-10T17:24:41.809Z,19.10
2017-12-10T17:27:10.177Z,19.10
2017-12-10T17:29:43.022Z,19.10
2017-12-10T17:32:12.243Z,19.10
2017-12-10T17:34:44.224Z,19.10
2017-12-10T17:37:13.405Z,19.10
2017-12-10T17:39:44.542Z,19.10
2017-12-10T17:42:12.938Z,19.10
2017-12-10T17:44:50.352Z,19.10
2017-12-10T17:47:20.988Z,19.10
2017-12-10T17:49:49.955Z,19.10
2017-12-10T17:52:20.906Z,19.10
2017-12-10T17:54:51.533Z,19.10
2017-12-10T17:57:20.216Z,19.10
2017-12-10T17:59:49.249Z,19.20
2017-12-10T18:02:20.543Z,19.20
2017-12-10T18:04:48.949Z,19.20
2017-12-10T18:10:20.392Z,19.20
2017-12-10T18:12:58.172Z,19.20
2017-12-10T18:15:32.767Z,19.20
2017-12-10T18:18:01.185Z,19.20
2017-12-10T18:20:29.523Z,19.20
2017-12-10T18:22:57.795Z,19.10
2017-12-10T18:25:26.049Z,19.20
2017-12-10T18:27:54.253Z,19.20
2017-12-10T18:30:22.912Z,19.20
2017-12-10T18:32:58.900Z,19.20
2017-12-10T18:35:27.167Z,19.20
2017-12-10T18:38:03.472Z,19.20
2017-12-10T18:40:31.718Z,19.20
2017-12-10T18:43:00.172Z,19.20
2017-12-10T18:45:28.556Z,19.20
2017-12-10T18:47:57.695Z,19.20
2017-12-10T18:50:27.761Z,19.10
2017-12-10T18:53:04.592Z,19.10
2017-12-10T18:55:33.788Z,19.10
2017-12-10T18:58:05.099Z,19.10
2017-12-10T19:00:33.362Z,19.10
2017-12-10T19:03:03.309Z,19.10
2017-12-10T19:05:33.394Z,19.10
2017-12-10T19:08:01.674Z,19.10
2017-12-10T19:10:29.931Z,19.10
2017-12-10T19:12:58.167Z,19.00
2017-12-10T19:15:26.495Z,19.00
2017-12-10T19:17:54.963Z,19.00
2017-12-10T19:20:23.919Z,19.00
2017-12-10T19:22:52.471Z,19.00
2017-12-10T19:25:21.703Z,19.00
2017-12-10T19:27:51.157Z,19.00
2017-12-10T19:30:19.580Z,19.10
2017-12-10T19:35:41.186Z,19.10
2017-12-10T19:41:10.437Z,19.10
2017-12-10T19:43:38.742Z,19.10
2017-12-10T19:46:07.463Z,19.20
2017-12-10T19:48:36.662Z,19.10
2017-12-10T19:51:08.048Z,19.20
2017-12-10T19:53:37.702Z,19.20
2017-12-10T19:56:09.906Z,19.20
2017-12-10T19:58:47.587Z,19.20
2017-12-10T20:01:19.319Z,19.20
2017-12-10T20:04:06.697Z,19.20
2017-12-10T20:09:16.858Z,19.20
2017-12-10T20:12:04.965Z,19.20
2017-12-10T20:14:47.450Z,19.20
2017-12-10T20:20:27.389Z,19.20
2017-12-10T20:25:37.546Z,19.20
2017-12-10T20:28:22.666Z,19.20
2017-12-10T20:30:52.658Z,19.20
2017-12-10T20:33:21.119Z,19.20
2017-12-10T20:35:56.936Z,19.20
2017-12-10T20:38:28.513Z,19.20
2017-12-10T20:40:57.656Z,19.20
2017-12-10T20:43:30.310Z,19.20
2017-12-10T20:46:00.048Z,19.20
2017-12-10T20:48:28.892Z,19.20
2017-12-10T20:50:58.503Z,19.20
2017-12-10T20:53:26.919Z,19.20
2017-12-10T20:55:56.325Z,19.20
2017-12-10T20:58:24.650Z,19.20
2017-12-10T21:00:56.052Z,19.20
2017-12-10T21:03:24.670Z,19.20
2017-12-10T21:05:53.004Z,19.20
2017-12-10T21:08:22.419Z,19.20
2017-12-10T21:10:51.012Z,19.20
2017-12-10T21:13:22.289Z,19.10
2017-12-10T21:16:07.372Z,19.20
2017-12-10T21:18:36.900Z,19.10
2017-12-10T21:21:06.213Z,19.20
2017-12-10T21:23:36.199Z,19.20
2017-12-10T21:26:04.588Z,19.20
2017-12-10T21:28:34.864Z,19.20
2017-12-10T21:31:06.235Z,19.30
2017-12-10T21:33:34.616Z,19.30
2017-12-10T21:36:05.653Z,19.30
2017-12-10T21:38:38.695Z,19.30
2017-12-10T21:41:10.791Z,19.30
2017-12-10T21:43:51.406Z,19.30
2017-12-10T21:46:20.767Z,19.30
2017-12-10T21:48:49.159Z,19.30
2017-12-10T21:51:19.062Z,19.30
2017-12-10T21:53:47.915Z,19.30
2017-12-10T21:56:20.049Z,19.40
2017-12-10T21:58:49.326Z,19.30
2017-12-10T22:01:18.459Z,19.30
2017-12-10T22:03:46.823Z,19.30
2017-12-10T22:06:17.902Z,19.20
2017-12-10T22:08:48.965Z,19.10
2017-12-10T22:11:19.211Z,19.10
2017-12-10T22:13:50.139Z,19.00
2017-12-10T22:19:05.941Z,18.90
2017-12-10T22:21:35.124Z,18.90
2017-12-10T22:24:04.361Z,18.80
2017-12-10T22:26:41.644Z,18.80
2017-12-10T22:29:13.695Z,18.80
2017-12-10T22:31:43.259Z,18.80
2017-12-10T22:34:13.729Z,18.80
2017-12-10T22:36:46.529Z,18.70
2017-12-10T22:39:26.843Z,18.70
2017-12-10T22:41:58.470Z,18.70
2017-12-10T22:44:29.492Z,18.70
2017-12-10T22:47:02.301Z,18.70
2017-12-10T22:52:25.817Z,18.70
